Time;durP1;ratioP1;P1;durP2;ratioP2;P2;SDS_P1;SDS_P2;PMS_P1;PMS_P2;Temp;Humidity;BMP_temperature;BMP_pressure;BME280_temperature;BME280_humidity;BME280_pressure;Samples;Min_cycle;Max_cycle;Signal;HPM_P1;HPM_P2
2021/12/14 00:00:18;;;;;;;20.52;11.43;;;8.30;99.90;;;;;;5040529;28;20267;-80
2021/12/14 00:02:45;;;;;;;22.00;12.52;;;8.00;99.90;;;;;;5037180;28;20219;-80
2021/12/14 00:05:13;;;;;;;23.50;12.40;;;8.20;99.90;;;;;;5061555;22;20234;-86
2021/12/14 00:07:41;;;;;;;18.42;12.57;;;8.30;99.90;;;;;;5063201;28;20295;-85
2021/12/14 00:10:27;;;;;;;24.50;11.82;;;8.30;99.90;;;;;;5062435;28;20208;-84
2021/12/14 00:12:59;;;;;;;20.60;12.95;;;8.30;99.90;;;;;;5062897;28;20699;-85
2021/12/14 00:15:26;;;;;;;24.63;12.85;;;8.30;99.90;;;;;;5063087;28;20292;-85
2021/12/14 00:17:56;;;;;;;26.25;12.70;;;8.10;99.90;;;;;;5063470;28;20219;-84
2021/12/14 00:20:28;;;;;;;19.75;11.35;;;8.40;99.90;;;;;;5066647;28;20544;-84
2021/12/14 00:25:45;;;;;;;18.17;11.15;;;8.30;99.90;;;;;;5062898;28;20231;-84
2021/12/14 00:28:14;;;;;;;21.65;12.20;;;8.10;99.90;;;;;;5065370;28;20219;-83
2021/12/14 00:30:43;;;;;;;20.23;11.93;;;8.20;99.90;;;;;;5071405;28;20290;-84
2021/12/14 00:33:14;;;;;;;20.10;11.45;;;8.20;99.90;;;;;;5063198;28;20204;-85
2021/12/14 00:35:42;;;;;;;19.98;11.40;;;8.10;99.90;;;;;;5062830;28;20314;-85
2021/12/14 00:38:12;;;;;;;19.75;11.70;;;8.00;99.90;;;;;;5063197;28;20280;-84
2021/12/14 00:40:43;;;;;;;19.17;11.68;;;8.20;99.90;;;;;;5062499;28;20318;-86
2021/12/14 00:43:10;;;;;;;18.70;10.27;;;7.90;99.90;;;;;;5063217;28;20195;-85
2021/12/14 00:45:40;;;;;;;16.25;9.40;;;8.30;99.90;;;;;;5060861;28;20318;-84
2021/12/14 00:48:08;;;;;;;18.33;10.18;;;8.30;99.90;;;;;;5061374;28;20272;-84
2021/12/14 00:50:36;;;;;;;16.38;9.63;;;8.30;99.90;;;;;;5062736;28;20294;-83
2021/12/14 00:53:04;;;;;;;18.55;10.95;;;8.10;99.90;;;;;;5062265;28;20204;-84
2021/12/14 00:55:36;;;;;;;18.45;10.20;;;8.10;99.90;;;;;;5062371;28;20228;-86
2021/12/14 00:58:05;;;;;;;20.83;10.25;;;8.20;99.90;;;;;;5061971;28;20201;-85
2021/12/14 01:00:35;;;;;;;17.10;8.88;;;8.30;99.90;;;;;;5061767;28;20250;-85
2021/12/14 01:03:04;;;;;;;18.58;9.70;;;8.30;99.90;;;;;;5060993;28;20256;-85
2021/12/14 01:05:35;;;;;;;21.88;11.52;;;8.30;99.90;;;;;;5061186;28;20238;-84
2021/12/14 01:08:04;;;;;;;21.00;10.27;;;8.30;99.90;;;;;;5062039;28;20199;-85
2021/12/14 01:10:38;;;;;;;19.50;9.85;;;8.30;99.90;;;;;;5061667;28;20204;-84
2021/12/14 01:13:08;;;;;;;16.15;9.35;;;8.30;99.90;;;;;;5062150;28;20570;-85
2021/12/14 01:15:51;;;;;;;17.83;9.98;;;8.20;99.90;;;;;;5063729;28;20234;-85
2021/12/14 01:18:31;;;;;;;16.45;10.10;;;8.40;99.90;;;;;;5061684;28;20231;-85
2021/12/14 01:21:08;;;;;;;18.90;9.88;;;8.20;99.90;;;;;;5062311;28;20242;-84
2021/12/14 01:23:36;;;;;;;20.60;9.77;;;7.90;99.90;;;;;;5062389;28;20212;-85
2021/12/14 01:26:10;;;;;;;17.73;8.65;;;7.90;99.90;;;;;;5061261;28;20324;-85
2021/12/14 01:28:41;;;;;;;17.87;8.33;;;8.30;99.90;;;;;;5061324;28;20200;-85
2021/12/14 01:31:16;;;;;;;16.42;8.88;;;8.50;99.90;;;;;;5061836;28;20448;-84
2021/12/14 01:33:47;;;;;;;19.10;9.40;;;8.30;99.90;;;;;;5061396;28;20278;-84
2021/12/14 01:36:25;;;;;;;16.38;9.20;;;8.30;99.90;;;;;;5061515;28;20233;-85
2021/12/14 01:39:10;;;;;;;14.80;8.52;;;8.40;99.90;;;;;;5061358;28;20299;-85
2021/12/14 01:41:39;;;;;;;17.83;8.35;;;8.40;99.90;;;;;;5061208;28;20423;-85
2021/12/14 01:44:08;;;;;;;17.40;9.30;;;8.30;99.90;;;;;;5061444;28;20264;-84
2021/12/14 01:46:38;;;;;;;17.55;9.98;;;8.30;99.90;;;;;;5061335;28;20204;-84
2021/12/14 01:49:07;;;;;;;20.77;9.95;;;8.10;99.90;;;;;;5061152;28;20205;-84
2021/12/14 01:51:36;;;;;;;17.58;9.45;;;7.90;99.90;;;;;;5060973;28;20615;-85
2021/12/14 01:54:04;;;;;;;16.60;9.55;;;7.80;99.90;;;;;;5066128;28;20208;-83
2021/12/14 01:56:32;;;;;;;15.52;8.52;;;8.20;99.90;;;;;;5070696;28;20326;-84
2021/12/14 01:59:06;;;;;;;18.73;8.90;;;8.20;99.90;;;;;;5062242;28;20238;-85
2021/12/14 02:01:42;;;;;;;15.73;8.77;;;8.10;99.90;;;;;;5064089;28;20268;-85
2021/12/14 02:04:13;;;;;;;18.50;9.85;;;8.10;99.90;;;;;;5070606;28;20197;-85
2021/12/14 02:06:41;;;;;;;18.25;9.45;;;8.10;99.90;;;;;;5064640;28;20218;-85
2021/12/14 02:09:10;;;;;;;20.40;9.27;;;8.20;99.90;;;;;;5064766;28;20223;-85
2021/12/14 02:11:43;;;;;;;21.13;9.02;;;8.20;99.90;;;;;;5067156;28;20258;-85
2021/12/14 02:14:10;;;;;;;16.92;10.40;;;8.30;99.90;;;;;;5068322;28;20196;-85
2021/12/14 02:16:39;;;;;;;16.55;8.65;;;8.20;99.90;;;;;;5066208;28;20214;-85
2021/12/14 02:19:10;;;;;;;16.40;9.30;;;8.10;99.90;;;;;;5062115;28;20278;-85
2021/12/14 02:21:39;;;;;;;19.33;8.30;;;8.00;99.90;;;;;;5068464;28;20192;-82
2021/12/14 02:24:08;;;;;;;18.55;10.43;;;8.30;99.90;;;;;;5069474;28;20208;-84
2021/12/14 02:26:38;;;;;;;18.10;8.93;;;7.90;99.90;;;;;;5065701;28;20272;-84
2021/12/14 02:29:08;;;;;;;17.90;9.90;;;8.30;99.90;;;;;;5066067;28;20242;-85
2021/12/14 02:31:39;;;;;;;18.45;10.00;;;8.00;99.90;;;;;;5064314;28;20196;-84
2021/12/14 02:34:08;;;;;;;16.80;9.07;;;8.10;99.90;;;;;;5067968;28;20249;-84
2021/12/14 02:36:40;;;;;;;15.93;8.40;;;8.10;99.90;;;;;;5064815;28;20207;-85
2021/12/14 02:39:22;;;;;;;16.30;9.23;;;8.20;99.90;;;;;;5064154;28;20278;-85
2021/12/14 02:41:51;;;;;;;17.73;8.25;;;8.10;99.90;;;;;;5066262;28;20233;-83
2021/12/14 02:44:18;;;;;;;15.32;9.40;;;8.20;99.90;;;;;;5064250;28;20271;-85
2021/12/14 02:46:48;;;;;;;16.25;9.32;;;7.70;99.90;;;;;;5065372;28;20218;-86
2021/12/14 02:49:24;;;;;;;17.75;9.40;;;8.00;99.90;;;;;;5065235;28;20303;-84
2021/12/14 02:51:56;;;;;;;15.85;8.40;;;8.20;99.90;;;;;;5066452;28;20258;-84
2021/12/14 02:54:25;;;;;;;18.73;8.70;;;8.10;99.90;;;;;;5065062;28;20215;-85
2021/12/14 02:56:56;;;;;;;14.60;8.10;;;8.00;99.90;;;;;;5065521;28;20211;-85
2021/12/14 02:59:26;;;;;;;15.02;7.82;;;8.00;99.90;;;;;;5064133;28;20220;-85
2021/12/14 03:01:56;;;;;;;16.17;7.90;;;8.00;99.90;;;;;;5065281;28;20199;-84
2021/12/14 03:04:22;;;;;;;12.85;7.70;;;7.60;99.90;;;;;;5064416;28;20203;-83
2021/12/14 03:06:55;;;;;;;14.45;9.00;;;7.70;99.90;;;;;;5064086;28;20196;-84
2021/12/14 03:09:36;;;;;;;15.80;9.23;;;8.00;99.90;;;;;;5064417;28;20191;-85
2021/12/14 03:12:07;;;;;;;16.27;8.60;;;8.00;99.90;;;;;;5064224;28;20723;-84
2021/12/14 03:14:34;;;;;;;17.25;8.57;;;8.00;99.90;;;;;;5064016;28;20368;-84
2021/12/14 03:17:01;;;;;;;16.15;8.55;;;7.50;99.90;;;;;;5066387;28;20267;-83
2021/12/14 03:19:28;;;;;;;15.45;9.27;;;7.90;99.90;;;;;;5067638;28;20207;-86
2021/12/14 03:21:57;;;;;;;20.70;9.15;;;7.80;99.90;;;;;;5065279;28;20208;-85
2021/12/14 03:24:23;;;;;;;14.52;8.75;;;8.00;99.90;;;;;;5073630;28;20195;-82
2021/12/14 03:26:52;;;;;;;14.80;7.85;;;8.00;99.90;;;;;;5066723;28;20207;-85
2021/12/14 03:29:23;;;;;;;15.93;8.30;;;7.90;99.90;;;;;;5064090;28;20206;-85
2021/12/14 03:31:53;;;;;;;18.27;8.02;;;7.90;99.90;;;;;;5064275;28;20251;-85
2021/12/14 03:34:23;;;;;;;17.20;8.75;;;7.60;99.90;;;;;;5064230;28;20270;-85
2021/12/14 03:36:53;;;;;;;16.10;8.55;;;7.50;99.90;;;;;;5070456;28;20201;-83
2021/12/14 03:39:23;;;;;;;19.55;8.05;;;8.00;99.90;;;;;;5076578;28;20222;-84
2021/12/14 03:41:53;;;;;;;21.45;9.52;;;8.10;99.90;;;;;;5076950;28;20302;-83
2021/12/14 03:44:23;;;;;;;13.55;7.10;;;8.10;99.90;;;;;;5076847;28;20203;-83
2021/12/14 03:46:55;;;;;;;14.68;8.05;;;7.70;99.90;;;;;;5065638;28;20249;-85
2021/12/14 03:49:25;;;;;;;17.58;8.02;;;7.90;99.90;;;;;;5072009;28;20604;-86
2021/12/14 03:51:53;;;;;;;14.45;7.18;;;7.80;99.90;;;;;;5068697;28;20244;-85
2021/12/14 03:54:22;;;;;;;12.77;6.72;;;8.00;99.90;;;;;;5075609;28;20226;-85
2021/12/14 03:56:51;;;;;;;12.80;6.45;;;7.60;99.90;;;;;;5067546;28;20217;-85
2021/12/14 03:59:19;;;;;;;9.60;5.45;;;7.90;99.90;;;;;;5064680;28;20208;-85
2021/12/14 04:01:48;;;;;;;11.98;6.35;;;7.80;99.90;;;;;;5063693;28;20231;-84
2021/12/14 04:04:19;;;;;;;9.93;5.50;;;7.80;99.90;;;;;;5063676;28;20205;-85
2021/12/14 04:06:49;;;;;;;10.52;5.43;;;7.80;99.90;;;;;;5063692;28;20203;-85
2021/12/14 04:09:18;;;;;;;9.90;5.25;;;7.70;99.90;;;;;;5062650;28;20188;-85
2021/12/14 04:11:47;;;;;;;10.82;5.35;;;7.70;99.90;;;;;;5067883;28;20211;-85
2021/12/14 04:14:14;;;;;;;11.80;6.10;;;7.50;99.90;;;;;;5062512;28;20235;-84
2021/12/14 04:16:46;;;;;;;10.73;5.03;;;8.10;99.90;;;;;;5064101;28;20267;-85
2021/12/14 04:19:20;;;;;;;10.32;6.10;;;7.90;99.90;;;;;;5071107;28;20247;-85
2021/12/14 04:21:47;;;;;;;10.15;5.25;;;7.80;99.90;;;;;;5070082;28;20236;-84
2021/12/14 04:24:24;;;;;;;10.30;5.60;;;7.70;99.90;;;;;;5063061;28;20225;-83
2021/12/14 04:26:54;;;;;;;11.80;6.32;;;7.70;99.90;;;;;;5062044;28;20230;-85
2021/12/14 04:29:21;;;;;;;12.65;6.20;;;7.90;99.90;;;;;;5062015;28;20242;-85
2021/12/14 04:31:49;;;;;;;12.57;6.07;;;7.40;99.90;;;;;;5062219;28;20203;-85
2021/12/14 04:34:19;;;;;;;10.30;5.72;;;7.70;99.90;;;;;;5061821;28;20584;-85
2021/12/14 04:36:47;;;;;;;13.43;6.40;;;8.00;99.90;;;;;;5061655;28;20219;-85
2021/12/14 04:39:33;;;;;;;10.52;4.95;;;7.90;99.90;;;;;;5063016;28;20206;-85
2021/12/14 04:53:35;;;;;;;8.25;4.60;;;7.90;99.90;;;;;;5061873;28;20214;-85
2021/12/14 04:56:03;;;;;;;8.18;3.80;;;8.00;99.90;;;;;;5061370;28;20315;-85
2021/12/14 04:58:35;;;;;;;12.00;5.18;;;8.10;99.90;;;;;;5061270;28;20628;-85
2021/12/14 05:01:04;;;;;;;9.82;4.93;;;7.90;99.90;;;;;;5065531;28;20217;-85
2021/12/14 05:03:35;;;;;;;9.10;4.72;;;8.10;99.90;;;;;;5064950;28;20218;-84
2021/12/14 05:06:15;;;;;;;8.25;4.70;;;8.00;99.90;;;;;;5062340;28;20236;-84
2021/12/14 05:11:30;;;;;;;8.57;5.00;;;7.80;99.90;;;;;;5065699;28;20191;-84
2021/12/14 05:14:05;;;;;;;8.10;5.10;;;7.90;99.90;;;;;;5066105;28;20267;-84
2021/12/14 05:16:33;;;;;;;8.40;4.90;;;7.90;99.90;;;;;;5061846;28;20233;-85
2021/12/14 05:19:03;;;;;;;10.55;5.22;;;7.70;99.90;;;;;;5060647;28;20212;-85
2021/12/14 05:21:33;;;;;;;9.95;5.25;;;7.70;99.90;;;;;;5060787;28;20207;-85
2021/12/14 05:24:02;;;;;;;11.40;5.90;;;7.40;99.90;;;;;;5061741;28;20214;-85
2021/12/14 05:26:29;;;;;;;8.10;4.47;;;7.80;99.90;;;;;;5060910;28;20315;-84
2021/12/14 05:28:56;;;;;;;8.90;5.00;;;7.50;99.90;;;;;;5061468;28;20214;-85
2021/12/14 05:31:25;;;;;;;8.15;4.97;;;7.80;99.90;;;;;;5061707;28;20204;-85
2021/12/14 05:33:53;;;;;;;8.88;4.90;;;7.90;99.90;;;;;;5060747;28;20212;-86
2021/12/14 05:36:22;;;;;;;8.77;5.22;;;8.10;99.90;;;;;;5060630;28;20234;-85
2021/12/14 05:38:57;;;;;;;9.98;4.78;;;7.60;99.90;;;;;;5061267;28;20324;-85
2021/12/14 05:44:14;;;;;;;9.38;5.20;;;7.50;99.90;;;;;;5061105;28;20191;-85
2021/12/14 05:46:50;;;;;;;9.85;5.32;;;7.80;99.90;;;;;;5061820;28;20231;-85
2021/12/14 05:49:19;;;;;;;8.60;4.57;;;7.80;99.90;;;;;;5062401;28;20192;-84
2021/12/14 05:51:46;;;;;;;7.40;3.85;;;7.40;99.90;;;;;;5061094;28;20210;-85
2021/12/14 05:54:20;;;;;;;8.75;4.50;;;7.70;99.90;;;;;;5061353;28;20312;-85
2021/12/14 05:56:48;;;;;;;8.88;4.95;;;7.50;99.90;;;;;;5066842;28;20259;-84
2021/12/14 05:59:19;;;;;;;9.70;5.50;;;8.10;99.90;;;;;;5061895;28;20294;-85
2021/12/14 06:01:48;;;;;;;10.82;4.95;;;7.90;99.90;;;;;;5061635;28;20211;-85
2021/12/14 06:04:16;;;;;;;9.13;4.93;;;7.80;99.90;;;;;;5060730;28;20354;-85
2021/12/14 06:06:45;;;;;;;10.15;5.88;;;8.00;99.90;;;;;;5088763;22;20227;-86
2021/12/14 06:09:15;;;;;;;8.52;5.05;;;7.80;99.90;;;;;;5072870;28;20657;-85
2021/12/14 06:11:44;;;;;;;9.45;5.03;;;7.60;99.90;;;;;;5073667;28;20203;-86
2021/12/14 06:14:22;;;;;;;7.50;4.82;;;7.30;99.90;;;;;;5071782;28;20237;-85
2021/12/14 06:16:54;;;;;;;9.40;4.53;;;7.60;99.90;;;;;;5070871;28;20231;-84
2021/12/14 06:19:24;;;;;;;7.80;4.60;;;7.30;99.90;;;;;;5071083;28;20187;-84
2021/12/14 06:21:54;;;;;;;9.50;5.32;;;7.10;99.90;;;;;;5080455;28;20243;-83
2021/12/14 06:24:23;;;;;;;9.15;5.80;;;7.40;99.90;;;;;;5068323;28;20228;-81
2021/12/14 06:26:52;;;;;;;9.55;4.82;;;7.40;99.90;;;;;;5061872;28;20313;-80
2021/12/14 06:29:26;;;;;;;8.70;4.57;;;7.40;99.90;;;;;;5063162;28;20207;-81
2021/12/14 06:31:55;;;;;;;8.05;5.00;;;7.40;99.90;;;;;;5079710;28;20191;-82
2021/12/14 06:34:24;;;;;;;8.95;6.07;;;7.30;99.90;;;;;;5079233;28;20199;-84
2021/12/14 06:37:31;;;;;;;6.85;4.20;;;7.50;99.90;;;;;;5078389;28;20245;-83
2021/12/14 06:40:17;;;;;;;8.63;4.45;;;7.30;99.90;;;;;;5080587;28;20216;-83
2021/12/14 06:42:47;;;;;;;8.50;5.05;;;7.20;99.90;;;;;;5071538;28;20211;-87
2021/12/14 06:45:19;;;;;;;8.52;4.85;;;6.90;99.90;;;;;;5066838;28;20197;-84
2021/12/14 06:47:49;;;;;;;9.25;5.05;;;7.20;99.90;;;;;;5071005;28;20224;-83
2021/12/14 06:50:21;;;;;;;7.90;4.72;;;7.40;99.90;;;;;;5076042;28;20229;-84
2021/12/14 06:52:57;;;;;;;8.07;4.63;;;6.90;99.90;;;;;;5074266;28;20612;-85
2021/12/14 06:55:26;;;;;;;9.13;5.40;;;7.30;99.90;;;;;;5067941;28;20207;-86
2021/12/14 06:57:53;;;;;;;9.90;5.35;;;7.10;99.90;;;;;;5068822;28;20242;-85
2021/12/14 07:00:21;;;;;;;8.15;5.03;;;7.20;99.90;;;;;;5067205;28;20202;-85
2021/12/14 07:02:51;;;;;;;11.10;5.40;;;7.10;99.90;;;;;;5065240;28;20262;-85
2021/12/14 07:05:20;;;;;;;9.93;6.05;;;7.00;99.90;;;;;;5068834;28;20225;-83
2021/12/14 07:07:47;;;;;;;10.05;5.30;;;7.20;99.90;;;;;;5065279;28;20321;-84
2021/12/14 07:10:16;;;;;;;10.00;5.70;;;7.10;99.90;;;;;;5065472;28;20202;-84
2021/12/14 07:12:43;;;;;;;9.27;6.05;;;7.20;99.90;;;;;;5067984;28;20582;-82
2021/12/14 07:15:16;;;;;;;10.65;6.25;;;7.10;99.90;;;;;;5076111;28;20229;-80
2021/12/14 07:17:48;;;;;;;9.60;5.50;;;7.10;99.90;;;;;;5067592;28;20238;-83
2021/12/14 07:20:24;;;;;;;9.32;5.70;;;6.70;99.90;;;;;;5065389;28;20196;-81
2021/12/14 07:22:53;;;;;;;10.98;6.18;;;7.40;99.90;;;;;;5063901;28;20238;-82
2021/12/14 07:25:25;;;;;;;9.60;5.25;;;7.40;99.90;;;;;;5062956;28;20210;-83
2021/12/14 07:27:54;;;;;;;10.25;5.60;;;7.50;99.90;;;;;;5065110;28;20290;-82
2021/12/14 07:30:24;;;;;;;9.63;6.28;;;7.40;99.90;;;;;;5065104;28;20210;-83
2021/12/14 07:32:56;;;;;;;12.45;6.35;;;7.10;99.90;;;;;;5065325;28;20191;-82
2021/12/14 07:35:34;;;;;;;11.48;6.60;;;7.30;99.90;;;;;;5065724;28;20189;-83
2021/12/14 07:38:17;;;;;;;8.30;5.75;;;7.40;99.90;;;;;;5063134;28;20222;-79
2021/12/14 07:40:46;;;;;;;10.80;5.78;;;7.50;99.90;;;;;;5059424;28;20196;-79
2021/12/14 07:43:19;;;;;;;10.50;5.75;;;7.50;99.90;;;;;;5059057;28;20199;-79
2021/12/14 07:45:48;;;;;;;9.00;5.80;;;7.70;99.90;;;;;;5058595;28;20214;-81
2021/12/14 07:48:15;;;;;;;10.88;6.15;;;7.40;99.90;;;;;;5055429;28;20309;-77
2021/12/14 07:50:50;;;;;;;11.07;6.53;;;7.10;99.90;;;;;;5058749;28;20206;-77
2021/12/14 07:53:31;;;;;;;8.10;4.93;;;7.10;99.90;;;;;;5055509;28;20218;-77
2021/12/14 07:55:58;;;;;;;10.63;5.07;;;7.20;99.90;;;;;;5054985;28;20232;-77
2021/12/14 07:58:36;;;;;;;9.30;6.32;;;7.30;99.90;;;;;;5055605;28;20297;-77
2021/12/14 08:01:05;;;;;;;11.65;5.50;;;7.30;99.90;;;;;;5056088;28;20617;-78
2021/12/14 08:03:33;;;;;;;16.02;5.35;;;7.50;99.90;;;;;;5055606;28;20620;-78
2021/12/14 08:06:07;;;;;;;9.30;5.50;;;7.40;99.90;;;;;;5058178;28;20289;-81
2021/12/14 08:08:42;;;;;;;8.68;5.63;;;7.30;99.90;;;;;;5061536;28;20207;-79
2021/12/14 08:11:47;;;;;;;10.20;6.70;;;7.10;99.90;;;;;;5060486;28;20265;-80
2021/12/14 08:14:21;;;;;;;10.60;4.95;;;7.20;99.90;;;;;;5065316;28;20212;-79
2021/12/14 08:16:53;;;;;;;10.65;5.13;;;7.40;99.90;;;;;;5062526;28;20700;-80
2021/12/14 08:19:31;;;;;;;9.00;5.65;;;7.80;99.90;;;;;;5065292;28;20578;-79
2021/12/14 08:22:06;;;;;;;10.07;5.55;;;7.60;99.90;;;;;;5069627;28;20216;-79
2021/12/14 08:24:33;;;;;;;9.88;5.18;;;7.70;99.90;;;;;;5065809;28;20193;-79
2021/12/14 08:27:02;;;;;;;8.25;5.47;;;7.80;99.90;;;;;;5068318;28;20238;-82
2021/12/14 08:29:31;;;;;;;8.90;5.43;;;7.70;99.90;;;;;;5071094;28;20211;-80
2021/12/14 08:32:04;;;;;;;9.52;6.25;;;7.50;99.90;;;;;;5066753;28;20276;-80
2021/12/14 08:34:34;;;;;;;9.05;5.43;;;7.80;99.90;;;;;;5067195;28;20198;-80
2021/12/14 08:37:07;;;;;;;8.85;5.25;;;7.90;99.90;;;;;;5064028;28;20226;-80
2021/12/14 08:39:41;;;;;;;10.07;5.20;;;7.90;99.90;;;;;;5064307;28;20217;-80
2021/12/14 08:42:14;;;;;;;11.90;5.90;;;7.40;99.90;;;;;;5064683;28;20564;-78
2021/12/14 08:44:51;;;;;;;9.48;5.70;;;7.80;99.90;;;;;;5059233;28;20187;-77
2021/12/14 08:47:28;;;;;;;11.38;6.25;;;7.60;99.90;;;;;;5063014;28;20225;-79
2021/12/14 08:49:55;;;;;;;8.57;5.32;;;7.90;99.90;;;;;;5057296;28;20191;-78
2021/12/14 08:52:24;;;;;;;9.82;6.55;;;7.90;99.90;;;;;;5060707;28;20214;-83
2021/12/14 08:54:51;;;;;;;27.90;13.98;;;7.70;99.90;;;;;;5056873;28;20560;-77
2021/12/14 08:57:22;;;;;;;8.50;5.28;;;7.50;99.90;;;;;;5061813;28;20227;-78
2021/12/14 08:59:53;;;;;;;8.95;6.05;;;7.50;99.90;;;;;;5071415;28;20271;-82
2021/12/14 09:02:22;;;;;;;8.40;5.80;;;7.70;99.90;;;;;;5070385;28;20297;-82
2021/12/14 09:04:52;;;;;;;8.45;5.85;;;7.70;99.90;;;;;;5065370;28;20225;-83
2021/12/14 09:07:24;;;;;;;7.78;4.82;;;7.70;99.90;;;;;;5068629;28;20238;-82
2021/12/14 09:09:53;;;;;;;9.43;6.07;;;7.80;99.90;;;;;;5065563;28;20595;-81
2021/12/14 09:12:25;;;;;;;7.47;5.20;;;7.70;99.90;;;;;;5063117;28;20214;-81
2021/12/14 09:14:54;;;;;;;9.75;5.75;;;7.80;99.90;;;;;;5061049;28;20197;-81
2021/12/14 09:17:23;;;;;;;7.50;4.38;;;7.90;99.90;;;;;;5062351;28;20304;-80
2021/12/14 09:19:58;;;;;;;9.43;5.55;;;8.30;99.90;;;;;;5061677;28;20212;-81
2021/12/14 09:22:33;;;;;;;9.10;5.05;;;8.30;99.90;;;;;;5059588;28;20303;-80
2021/12/14 09:25:07;;;;;;;5.97;3.78;;;7.80;99.90;;;;;;5059947;28;20268;-80
2021/12/14 09:27:36;;;;;;;18.23;5.97;;;8.40;99.90;;;;;;5072632;28;20245;-81
2021/12/14 09:30:06;;;;;;;9.02;5.30;;;8.60;99.90;;;;;;5071067;28;20253;-77
2021/12/14 09:32:34;;;;;;;11.30;6.65;;;8.50;99.90;;;;;;5061002;28;20285;-79
2021/12/14 09:35:06;;;;;;;11.13;7.20;;;8.40;99.90;;;;;;5063836;28;20290;-79
2021/12/14 09:37:33;;;;;;;12.02;7.05;;;8.00;99.90;;;;;;5063988;28;20318;-79
2021/12/14 09:40:06;;;;;;;8.07;5.28;;;8.20;99.90;;;;;;5062470;28;20271;-84
2021/12/14 09:42:35;;;;;;;8.02;5.47;;;8.40;99.90;;;;;;5064603;28;20660;-82
2021/12/14 09:45:08;;;;;;;9.32;6.20;;;8.60;99.90;;;;;;5064774;28;20268;-79
2021/12/14 09:47:36;;;;;;;10.73;4.22;;;8.60;99.90;;;;;;5068841;28;20249;-80
2021/12/14 09:50:10;;;;;;;10.13;4.85;;;8.60;99.90;;;;;;5065685;28;20204;-81
2021/12/14 09:52:43;;;;;;;8.90;5.22;;;8.70;99.90;;;;;;5061982;28;20241;-81
2021/12/14 09:55:15;;;;;;;8.88;5.72;;;8.30;99.90;;;;;;5063290;28;20192;-80
2021/12/14 09:57:45;;;;;;;8.73;5.18;;;8.60;99.90;;;;;;5062237;28;20313;-85
2021/12/14 10:00:17;;;;;;;9.38;6.18;;;8.60;99.90;;;;;;5064508;28;20578;-84
2021/12/14 10:02:45;;;;;;;17.95;7.38;;;8.40;99.90;;;;;;5062337;28;20234;-81
2021/12/14 10:05:16;;;;;;;16.80;6.80;;;8.20;99.90;;;;;;5063238;28;20608;-82
2021/12/14 10:07:43;;;;;;;10.65;5.57;;;8.30;99.90;;;;;;5062761;28;20246;-83
2021/12/14 10:10:15;;;;;;;8.75;5.38;;;8.50;99.90;;;;;;5065499;28;20236;-83
2021/12/14 10:12:51;;;;;;;10.10;6.10;;;8.30;99.90;;;;;;5069871;28;20189;-83
2021/12/14 10:15:24;;;;;;;9.40;5.82;;;8.40;99.90;;;;;;5072141;28;20216;-84
2021/12/14 10:17:52;;;;;;;11.15;6.78;;;8.50;99.90;;;;;;5068703;28;20259;-86
2021/12/14 10:20:22;;;;;;;9.27;6.05;;;8.60;99.90;;;;;;5065892;28;20751;-85
2021/12/14 10:22:51;;;;;;;11.50;5.97;;;8.70;99.90;;;;;;5068365;28;20247;-85
2021/12/14 10:25:22;;;;;;;9.73;5.43;;;8.40;99.90;;;;;;5071477;28;20259;-85
2021/12/14 10:27:50;;;;;;;11.52;6.50;;;8.60;99.90;;;;;;5066458;28;20296;-86
2021/12/14 10:30:21;;;;;;;12.02;6.38;;;8.40;99.90;;;;;;5065513;28;20268;-84
2021/12/14 10:32:48;;;;;;;9.80;6.60;;;8.50;99.90;;;;;;5064267;28;20186;-84
2021/12/14 10:35:21;;;;;;;9.63;5.82;;;8.60;99.90;;;;;;5065049;28;20258;-87
2021/12/14 10:37:54;;;;;;;9.57;6.38;;;8.60;99.90;;;;;;5061901;28;20251;-80
2021/12/14 10:43:16;;;;;;;9.88;5.60;;;8.70;99.90;;;;;;5064099;28;20221;-84
2021/12/14 10:45:48;;;;;;;8.82;5.30;;;8.70;99.90;;;;;;5072967;28;20196;-82
2021/12/14 10:48:15;;;;;;;13.10;5.15;;;8.50;99.90;;;;;;5067724;28;20220;-85
2021/12/14 10:50:43;;;;;;;13.85;5.93;;;8.70;99.90;;;;;;5068831;28;20211;-83
2021/12/14 10:53:12;;;;;;;10.60;6.32;;;8.70;99.90;;;;;;5065792;28;20218;-83
2021/12/14 10:55:45;;;;;;;10.10;6.13;;;8.40;99.90;;;;;;5064578;28;20749;-83
2021/12/14 10:58:14;;;;;;;8.63;6.00;;;8.60;99.90;;;;;;5063680;28;20231;-84
2021/12/14 11:00:46;;;;;;;8.90;5.80;;;8.60;99.90;;;;;;5065828;28;20232;-84
2021/12/14 11:03:17;;;;;;;9.88;5.90;;;8.60;99.90;;;;;;5070073;28;20237;-85
2021/12/14 11:05:53;;;;;;;9.93;6.32;;;8.40;99.90;;;;;;5076654;28;20228;-83
2021/12/14 11:08:36;;;;;;;10.48;6.15;;;8.50;99.90;;;;;;5071884;28;20223;-82
2021/12/14 11:11:11;;;;;;;9.85;5.47;;;8.70;99.90;;;;;;5075935;28;20532;-84
2021/12/14 11:13:41;;;;;;;13.85;7.07;;;8.70;99.90;;;;;;5069029;28;20221;-84
2021/12/14 11:16:15;;;;;;;11.27;6.40;;;8.80;99.90;;;;;;5068778;28;20605;-84
2021/12/14 11:18:45;;;;;;;13.85;6.30;;;8.70;99.90;;;;;;5068029;28;20207;-85
2021/12/14 11:21:14;;;;;;;14.48;8.52;;;8.60;99.90;;;;;;5067564;28;20311;-85
2021/12/14 11:23:44;;;;;;;10.65;6.47;;;8.50;99.90;;;;;;5065511;28;20274;-85
2021/12/14 11:26:15;;;;;;;8.50;5.57;;;8.80;99.90;;;;;;5066427;28;20233;-84
2021/12/14 11:28:46;;;;;;;15.45;5.88;;;9.00;99.90;;;;;;5068487;28;20280;-81
2021/12/14 11:31:18;;;;;;;10.10;5.45;;;9.10;99.90;;;;;;5066643;28;20219;-82
2021/12/14 11:33:48;;;;;;;9.35;6.15;;;9.10;99.90;;;;;;5065936;28;20573;-80
2021/12/14 11:36:18;;;;;;;11.52;6.75;;;8.90;99.90;;;;;;5061165;28;20336;-80
2021/12/14 11:38:48;;;;;;;12.43;6.75;;;8.90;99.90;;;;;;5063685;28;20295;-80
2021/12/14 11:41:31;;;;;;;15.80;7.65;;;8.90;99.90;;;;;;5068509;28;20308;-79
2021/12/14 11:44:05;;;;;;;11.55;6.32;;;8.60;99.90;;;;;;5062854;28;20247;-82
2021/12/14 11:46:33;;;;;;;10.82;7.25;;;8.60;99.90;;;;;;5071548;28;20241;-83
2021/12/14 11:49:04;;;;;;;11.35;6.68;;;8.50;99.90;;;;;;5071626;28;20215;-83
2021/12/14 11:51:32;;;;;;;14.48;6.95;;;8.90;99.90;;;;;;5071852;28;20239;-83
2021/12/14 11:54:01;;;;;;;15.05;8.15;;;8.70;99.90;;;;;;5062254;28;20209;-79
2021/12/14 11:56:33;;;;;;;15.45;7.50;;;8.70;99.90;;;;;;5065550;28;20228;-78
2021/12/14 11:59:02;;;;;;;11.45;7.95;;;8.30;99.90;;;;;;5067070;28;20291;-79
2021/12/14 12:01:31;;;;;;;9.05;6.20;;;8.70;99.90;;;;;;5067366;28;20292;-81
2021/12/14 12:04:00;;;;;;;13.07;7.25;;;8.80;99.90;;;;;;5060904;28;20242;-80
2021/12/14 12:09:30;;;;;;;16.00;7.67;;;9.10;99.90;;;;;;5061439;28;20201;-84
2021/12/14 12:12:06;;;;;;;12.05;6.45;;;9.00;99.90;;;;;;5062209;28;20456;-84
2021/12/14 12:14:36;;;;;;;14.18;6.90;;;9.00;99.90;;;;;;5064687;28;20215;-83
2021/12/14 12:17:14;;;;;;;9.65;7.10;;;9.20;99.90;;;;;;5062894;28;20291;-83
2021/12/14 12:19:50;;;;;;;11.95;6.68;;;9.10;99.90;;;;;;5065690;28;20199;-82
2021/12/14 12:22:17;;;;;;;11.88;7.57;;;8.80;99.90;;;;;;5066994;28;20259;-84
2021/12/14 12:24:47;;;;;;;19.40;10.43;;;9.20;99.90;;;;;;5064863;28;20208;-84
2021/12/14 12:27:35;;;;;;;11.90;7.45;;;9.30;99.90;;;;;;5063987;28;20258;-84
2021/12/14 12:30:15;;;;;;;10.27;7.63;;;9.20;99.90;;;;;;5063709;28;20193;-81
2021/12/14 12:32:42;;;;;;;13.77;7.53;;;9.50;99.90;;;;;;5061604;28;20193;-82
2021/12/14 12:35:22;;;;;;;14.15;10.18;;;9.50;99.90;;;;;;5059972;28;20272;-83
2021/12/14 12:37:49;;;;;;;11.77;7.90;;;9.30;99.90;;;;;;5061729;28;20253;-84
2021/12/14 12:40:19;;;;;;;14.35;7.15;;;9.10;99.90;;;;;;5062584;28;20235;-84
2021/12/14 12:42:47;;;;;;;11.50;7.78;;;9.30;99.90;;;;;;5063549;28;20280;-84
2021/12/14 12:45:34;;;;;;;24.73;12.80;;;9.20;99.90;;;;;;5062413;28;20270;-85
2021/12/14 12:48:01;;;;;;;15.07;8.93;;;9.20;99.90;;;;;;5059578;28;20256;-79
2021/12/14 12:50:29;;;;;;;11.02;7.78;;;9.10;99.90;;;;;;5062333;28;20204;-79
2021/12/14 12:52:56;;;;;;;10.20;7.13;;;9.20;99.90;;;;;;5063941;28;20204;-81
2021/12/14 12:55:30;;;;;;;15.20;7.32;;;9.40;99.90;;;;;;5061958;28;20231;-80
2021/12/14 12:58:11;;;;;;;12.50;7.88;;;9.30;99.90;;;;;;5059151;28;20222;-80
2021/12/14 13:00:42;;;;;;;12.82;8.70;;;9.40;99.90;;;;;;5059057;28;20195;-79
2021/12/14 13:03:13;;;;;;;12.20;8.18;;;9.30;99.90;;;;;;5060027;28;20280;-83
2021/12/14 13:05:45;;;;;;;17.05;9.20;;;9.20;99.90;;;;;;5059216;28;20262;-79
2021/12/14 13:08:18;;;;;;;16.48;10.23;;;9.20;99.90;;;;;;5058983;28;20263;-80
2021/12/14 13:10:49;;;;;;;13.30;8.50;;;9.10;99.90;;;;;;5058811;28;20196;-78
2021/12/14 13:13:20;;;;;;;12.85;8.88;;;9.10;99.90;;;;;;5060290;28;20189;-79
2021/12/14 13:16:01;;;;;;;12.88;9.45;;;9.20;99.90;;;;;;5058890;28;20641;-81
2021/12/14 13:18:41;;;;;;;11.73;6.93;;;9.20;99.90;;;;;;5061357;28;20283;-80
2021/12/14 13:21:17;;;;;;;14.82;8.75;;;9.10;99.90;;;;;;5064776;28;20223;-79
2021/12/14 13:23:58;;;;;;;14.85;9.77;;;9.00;99.90;;;;;;5061771;28;20250;-80
2021/12/14 13:26:35;;;;;;;11.50;8.15;;;9.00;99.90;;;;;;5059548;28;20289;-85
2021/12/14 13:29:18;;;;;;;16.27;9.13;;;9.00;99.90;;;;;;5062410;28;20231;-78
2021/12/14 13:31:48;;;;;;;17.67;9.40;;;9.10;99.90;;;;;;5066070;28;20278;-78
2021/12/14 13:34:17;;;;;;;15.20;9.88;;;9.00;99.90;;;;;;5061090;28;20252;-78
2021/12/14 13:36:46;;;;;;;14.00;10.73;;;9.00;99.90;;;;;;5060056;28;20232;-79